Aeroporto :
LOGIN :

Iscrizione | Disclaimer

   EN    FR    IT 

 










Sommario :    VFR   VFR Marginale   IFR   IFR Intensivo   IFR Molto Intensivo
Visibilità : 
Base nubi : 
>= 8 km
>= 3000ft
5 / 8 km
1000 / 3000 ft
1500m / 5 km
500 / 1000 ft
800 / 1500m
200 / 500 ft
< 800m
< 200 ft
Simboli :   Temporali  Nebbia  Neve Forte  Precipitazioni Forti  Vento > 20 kt
SIGMETs :   Varie  Temporali  Ghiacco  Turbolenza  Onda orograficha  Ceneri Vulcaniche






- Altitudine del aeroporto : 359 ft
- Codice IATA : BVA


LFOB - Beauvais

ULTIMO METAR :
  • 180300Z AUTO 19012KT 9999 FEW016 SCT022 BKN031 13/11 Q1005 TEMPO 25020G35KT 2000 SHRA BKN013CB

METARs OBSOLETI :
  • 180230Z AUTO 20012KT 9999 FEW015 SCT030 BKN074 13/11 Q1006 TEMPO 25020G35KT 2000 SHRA BKN013CB
  • 180200Z AUTO 20012KT 170V230 9999 BKN013 BKN019 13/11 Q1006 TEMPO 25020G35KT 2000 SHRA BKN013CB
  • 180130Z AUTO 20010KT 9999 OVC015 13/11 Q1006 TEMPO 25020G35KT 2000 SHRA BKN013CB
  • 180100Z AUTO 18008KT 150V210 9999 BKN014 BKN019 BKN074 13/11 Q1007 BECMG 20015G25KT SCT020
  • 180030Z AUTO 18007KT 9999 FEW016 BKN098 BKN200 13/11 Q1007 BECMG 20015G25KT

TAF TAF LFOB
Valido dal 18 a 00 ore il 19 a 00 ore UTC


172300Z 1800/1824 20012KT 9999 SCT020
BECMG 1800/1802 20015G25KT
TEMPO 1803/1806 25020G35KT 2000 SHRA BKN013CB
PROB30
TEMPO 1804/1806 TSRA
PROB30
TEMPO 1816/1818 4000 SHRA BKN020TCU
BECMG 1817/1819 20013KT
ATIS : +33 3 44 11 49 28



MetMap, La meteo Aeronautica in un colpo d'occhio ! - Copyright ORBIFLY Dicembre 2007 - Disclaimer

ORBIFLY MET'MAP TEAM :

Programmazione e sviluppo : Alexandra Zaïnal
Concezione e sviluppo : Baudouin d'Aumeries
Co-Programmazione e sviluppo : Marc-Olivier Méhu
Supporto tecnico e logistico : Manuel Goepfert
Aiuto per la traduzione : Arnaldo La Scala

Contatto : metmap@orbifly.com




FONTI E CREDITI :

   NOAA